createdAt,value
2019-05-12T00:00:42.842Z,100878.56
2019-05-12T00:03:14.415Z,100878.02
2019-05-12T00:05:48.223Z,100872.64
2019-05-12T00:08:19.559Z,100874.34
2019-05-12T00:10:51.302Z,100874.85
2019-05-12T00:13:23.366Z,100878.71
2019-05-12T00:15:58.322Z,100882.45
2019-05-12T00:18:30.053Z,100885.54
2019-05-12T00:21:02.304Z,100890.61
2019-05-12T00:23:35.495Z,100888.00
2019-05-12T00:26:07.946Z,100891.97
2019-05-12T00:28:39.753Z,100902.36
2019-05-12T00:31:10.489Z,100902.66
2019-05-12T00:33:42.316Z,100908.59
2019-05-12T00:36:14.585Z,100916.27
2019-05-12T00:38:48.428Z,100919.51
2019-05-12T00:41:19.748Z,100919.51
2019-05-12T00:43:50.461Z,100921.56
2019-05-12T00:46:22.605Z,100925.13
2019-05-12T00:48:54.681Z,100942.31
2019-05-12T00:51:28.621Z,100945.40
2019-05-12T00:53:59.801Z,100945.40
2019-05-12T00:56:31.754Z,100950.46
2019-05-12T00:59:02.498Z,100955.34
2019-05-12T01:01:34.332Z,100953.84
2019-05-12T01:04:08.518Z,100955.86
2019-05-12T01:06:39.378Z,100949.83
2019-05-12T01:09:11.598Z,100949.83
2019-05-12T01:11:43.306Z,100968.55
2019-05-12T01:14:14.789Z,100968.55
2019-05-12T01:16:48.493Z,100971.09
2019-05-12T01:19:20.058Z,100976.81
2019-05-12T01:21:51.782Z,100980.27
2019-05-12T01:24:22.502Z,100976.61
2019-05-12T01:26:54.309Z,100984.39
2019-05-12T01:29:28.029Z,100991.03
2019-05-12T01:32:18.502Z,100969.31
2019-05-12T01:34:50.303Z,100969.31
2019-05-12T01:37:25.068Z,100985.05
2019-05-12T01:39:59.786Z,100991.06
2019-05-12T01:42:30.774Z,101000.23
2019-05-12T01:45:02.366Z,101004.95
2019-05-12T01:47:34.062Z,100996.63
2019-05-12T01:50:08.778Z,101001.26
2019-05-12T01:52:39.741Z,101005.81
2019-05-12T01:55:11.397Z,101010.58
2019-05-12T01:57:43.289Z,101012.61
2019-05-12T02:00:14.882Z,101011.89
2019-05-12T02:02:48.122Z,101016.30
2019-05-12T02:05:19.805Z,101024.55
2019-05-12T02:07:58.330Z,101022.81
2019-05-12T02:10:29.766Z,101022.11
2019-05-12T02:13:00.449Z,101027.87
2019-05-12T02:15:32.765Z,101022.80
2019-05-12T02:18:03.502Z,101033.48
2019-05-12T02:20:37.877Z,101034.66
2019-05-12T02:23:09.333Z,101042.02
2019-05-12T02:25:41.048Z,101045.59
2019-05-12T02:28:12.772Z,101046.95
2019-05-12T02:30:43.456Z,101051.42
2019-05-12T02:33:16.033Z,101052.89
2019-05-12T02:35:47.862Z,101053.45
2019-05-12T02:38:19.371Z,101051.44
2019-05-12T02:40:50.989Z,101058.89
2019-05-12T02:43:24.450Z,101066.89
2019-05-12T02:45:56.378Z,101052.49
2019-05-12T02:48:28.058Z,101052.49
2019-05-12T02:50:59.735Z,101070.04
2019-05-12T02:53:30.486Z,101072.84
2019-05-12T02:56:05.030Z,101075.19
2019-05-12T02:58:36.301Z,101081.69
2019-05-12T03:01:08.494Z,101085.86
2019-05-12T03:03:40.768Z,101086.86
2019-05-12T03:06:15.128Z,101090.08
2019-05-12T03:08:45.704Z,101091.56
2019-05-12T03:11:16.491Z,101101.22
2019-05-12T03:13:48.310Z,101094.42
2019-05-12T03:16:19.875Z,101088.66
2019-05-12T03:18:55.127Z,101090.91
2019-05-12T03:21:25.583Z,101088.00
2019-05-12T03:23:57.306Z,101094.80
2019-05-12T03:26:28.791Z,101094.80
2019-05-12T03:29:00.783Z,101112.05
2019-05-12T03:31:33.842Z,101115.61
2019-05-12T03:36:51.055Z,101119.63
2019-05-12T03:39:21.311Z,101118.93
2019-05-12T03:41:54.643Z,101115.13
2019-05-12T03:44:26.607Z,101124.48
2019-05-12T03:46:58.050Z,101128.38
2019-05-12T03:49:29.882Z,101132.20
2019-05-12T03:52:04.737Z,101136.02
2019-05-12T03:54:35.384Z,101136.39
2019-05-12T03:57:07.082Z,101146.22
2019-05-12T03:59:38.753Z,101154.16
2019-05-12T04:02:09.385Z,101151.73
2019-05-12T04:04:40.743Z,101160.39
2019-05-12T04:07:11.431Z,101165.43
2019-05-12T04:09:45.074Z,101174.65
2019-05-12T04:12:16.741Z,101190.53
2019-05-12T04:14:47.441Z,101195.71
2019-05-12T04:17:19.027Z,101195.34
2019-05-12T04:19:50.788Z,101200.13
2019-05-12T04:22:24.892Z,101203.80
2019-05-12T04:24:55.770Z,101206.58
2019-05-12T04:27:26.502Z,101213.56
2019-05-12T04:29:58.736Z,101216.09
2019-05-12T04:32:29.444Z,101223.16
2019-05-12T04:36:15.747Z,101251.86
2019-05-12T04:38:46.444Z,101251.86
2019-05-12T04:41:20.073Z,101250.55
2019-05-12T04:43:51.409Z,101258.08
2019-05-12T04:46:25.179Z,101264.53
2019-05-12T04:48:56.978Z,101274.78
2019-05-12T04:51:28.725Z,101285.25
2019-05-12T04:54:00.581Z,101280.97
2019-05-12T04:56:35.447Z,101282.80
2019-05-12T04:59:05.758Z,101283.69
2019-05-12T05:01:37.445Z,101293.30
2019-05-12T05:04:09.036Z,101308.00
2019-05-12T05:06:41.008Z,101308.53
2019-05-12T05:09:14.439Z,101314.05
2019-05-12T05:11:46.399Z,101295.21
2019-05-12T05:14:18.057Z,101295.21
2019-05-12T05:16:50.064Z,101322.20
2019-05-12T05:19:21.778Z,101333.05
2019-05-12T05:21:54.197Z,101330.09
2019-05-12T05:24:26.357Z,101331.87
2019-05-12T05:26:58.575Z,101335.78
2019-05-12T05:29:30.366Z,101350.44
2019-05-12T05:32:03.498Z,101350.44
2019-05-12T05:34:35.755Z,101347.52
2019-05-12T05:38:37.733Z,101363.95
2019-05-12T05:41:10.537Z,101371.75
2019-05-12T05:43:43.820Z,101379.22
2019-05-12T05:46:15.298Z,101382.79
2019-05-12T05:48:46.888Z,101393.02
2019-05-12T05:51:18.613Z,101390.68
2019-05-12T05:53:51.959Z,101389.98
2019-05-12T05:56:38.464Z,101389.98
2019-05-12T05:58:57.307Z,101411.11
2019-05-12T06:01:28.806Z,101414.16
2019-05-12T06:04:04.505Z,101419.90
2019-05-12T06:06:34.304Z,101421.86
2019-05-12T06:09:07.999Z,101432.22
2019-05-12T06:11:39.717Z,101442.91
2019-05-12T06:14:13.149Z,101449.28
2019-05-12T06:16:43.746Z,101450.26
2019-05-12T06:19:14.722Z,101451.38
2019-05-12T06:21:45.481Z,101452.33
2019-05-12T06:24:20.030Z,101458.34
2019-05-12T06:26:57.811Z,101453.69
2019-05-12T06:29:25.223Z,101455.93
2019-05-12T06:32:00.142Z,101459.50
2019-05-12T06:34:30.747Z,101467.77
2019-05-12T06:37:05.178Z,101467.03
2019-05-12T06:39:34.751Z,101469.88
2019-05-12T06:42:12.232Z,101469.53
2019-05-12T06:44:40.315Z,101473.19
2019-05-12T06:47:14.192Z,101475.71
2019-05-12T06:49:48.850Z,101483.25
2019-05-12T06:52:20.053Z,101483.25
2019-05-12T06:54:56.590Z,101487.39
2019-05-12T06:57:28.772Z,101484.45
2019-05-12T06:59:58.741Z,101481.49
2019-05-12T07:02:30.287Z,101476.63
2019-05-12T07:05:04.378Z,101482.41
2019-05-12T07:07:42.094Z,101489.97
2019-05-12T07:10:13.123Z,101489.97
2019-05-12T07:12:57.656Z,101498.11
2019-05-12T07:15:17.392Z,101504.28
2019-05-12T07:17:55.788Z,101504.28
2019-05-12T07:20:29.175Z,101499.30
2019-05-12T07:23:03.522Z,101503.95
2019-05-12T07:25:36.878Z,101498.45
2019-05-12T07:28:08.762Z,101509.62
2019-05-12T07:30:39.479Z,101515.58
2019-05-12T07:33:11.306Z,101515.69
2019-05-12T07:35:44.428Z,101526.91
2019-05-12T07:38:20.937Z,101525.61
2019-05-12T07:40:50.021Z,101525.61
2019-05-12T07:43:24.131Z,101531.88
2019-05-12T07:46:02.252Z,101536.21
2019-05-12T07:48:29.770Z,101536.21
2019-05-12T07:51:00.888Z,101533.67
2019-05-12T07:53:33.861Z,101533.09
2019-05-12T07:56:05.778Z,101541.43
2019-05-12T07:58:40.954Z,101535.58
2019-05-12T08:01:11.077Z,101542.92
2019-05-12T08:03:43.635Z,101542.07
2019-05-12T08:06:15.729Z,101545.94
2019-05-12T08:08:50.520Z,101538.29
2019-05-12T08:11:19.827Z,101538.91
2019-05-12T08:13:54.177Z,101543.84
2019-05-12T08:16:29.731Z,101547.67
2019-05-12T08:18:58.698Z,101547.48
2019-05-12T08:21:34.859Z,101565.58
2019-05-12T08:24:03.768Z,101558.52
2019-05-12T08:26:35.752Z,101557.18
2019-05-12T08:29:10.409Z,101564.36
2019-05-12T08:31:41.053Z,101561.58
2019-05-12T08:34:13.648Z,101562.94
2019-05-12T08:36:53.100Z,101574.99
2019-05-12T08:39:22.825Z,101578.17
2019-05-12T08:41:53.566Z,101591.39
2019-05-12T08:44:33.898Z,101578.13
2019-05-12T08:46:58.774Z,101578.13
2019-05-12T08:49:35.858Z,101605.72
2019-05-12T08:52:03.831Z,101603.47
2019-05-12T08:54:39.554Z,101610.77
2019-05-12T08:57:09.307Z,101605.20
2019-05-12T09:02:25.247Z,101610.65
2019-05-12T09:04:56.888Z,101616.69
2019-05-12T09:07:30.367Z,101610.14
2019-05-12T09:10:03.995Z,101614.02
2019-05-12T09:12:35.297Z,101610.23
2019-05-12T09:15:08.426Z,101613.71
2019-05-12T09:17:49.078Z,101614.33
2019-05-12T09:20:14.302Z,101614.33
2019-05-12T09:22:45.847Z,101622.64
2019-05-12T09:25:18.016Z,101626.28
2019-05-12T09:27:50.302Z,101631.38
2019-05-12T09:30:33.365Z,101619.33
2019-05-12T09:33:04.717Z,101623.62
2019-05-12T09:35:39.222Z,101618.17
2019-05-12T09:38:11.478Z,101624.09
2019-05-12T09:40:43.766Z,101621.88
2019-05-12T09:43:15.741Z,101625.31
2019-05-12T09:45:51.534Z,101626.16
2019-05-12T09:48:20.306Z,101632.27
2019-05-12T09:51:00.255Z,101629.06
2019-05-12T09:53:25.383Z,101615.59
2019-05-12T09:55:58.602Z,101615.59
2019-05-12T09:58:30.630Z,101625.36
2019-05-12T10:01:03.622Z,101634.38
2019-05-12T10:03:38.389Z,101634.38
2019-05-12T10:06:11.495Z,101636.42
2019-05-12T10:08:43.443Z,101634.05
2019-05-12T10:11:19.349Z,101639.22
2019-05-12T10:13:49.367Z,101635.64
2019-05-12T10:16:21.306Z,101642.97
2019-05-12T10:18:52.891Z,101632.61
2019-05-12T10:21:24.953Z,101640.44
2019-05-12T10:24:00.443Z,101644.45
2019-05-12T10:26:30.310Z,101638.74
2019-05-12T10:29:14.133Z,101648.30
2019-05-12T10:31:39.085Z,101641.80
2019-05-12T10:34:23.564Z,101641.80
2019-05-12T10:36:54.760Z,101655.86
2019-05-12T10:39:27.309Z,101656.34
2019-05-12T10:41:58.903Z,101655.62
2019-05-12T10:44:39.269Z,101661.00
2019-05-12T10:47:06.321Z,101658.27
2019-05-12T10:49:38.309Z,101660.86
2019-05-12T10:52:09.863Z,101658.34
2019-05-12T10:54:43.457Z,101648.10
2019-05-12T10:57:15.582Z,101663.58
2019-05-12T10:59:48.608Z,101655.96
2019-05-12T11:02:26.578Z,101655.96
2019-05-12T11:04:54.316Z,101658.34
2019-05-12T11:07:27.964Z,101659.70
2019-05-12T11:10:05.195Z,101668.86
2019-05-12T11:12:33.321Z,101668.86
2019-05-12T11:15:06.650Z,101664.02
2019-05-12T11:17:57.362Z,101667.56
2019-05-12T11:20:29.058Z,101683.48
2019-05-12T11:23:03.268Z,101677.33
2019-05-12T11:25:34.717Z,101668.23
2019-05-12T11:28:05.493Z,101668.23
2019-05-12T11:30:37.301Z,101667.97
2019-05-12T11:33:09.682Z,101674.61
2019-05-12T11:35:43.347Z,101663.61
2019-05-12T11:38:14.768Z,101663.61
2019-05-12T11:40:45.669Z,101675.62
2019-05-12T11:43:16.484Z,101667.09
2019-05-12T11:45:48.310Z,101674.61
2019-05-12T11:48:20.014Z,101675.83
2019-05-12T11:50:51.718Z,101680.77
2019-05-12T11:53:30.489Z,101683.19
2019-05-12T11:55:56.064Z,101678.69
2019-05-12T11:58:27.790Z,101680.63
2019-05-12T12:01:04.712Z,101692.00
2019-05-12T12:03:34.805Z,101692.61
2019-05-12T12:06:06.758Z,101692.95
2019-05-12T12:08:37.515Z,101691.02
2019-05-12T12:11:10.442Z,101690.63
2019-05-12T12:13:42.782Z,101690.63
2019-05-12T12:20:25.298Z,101710.14
2019-05-12T12:23:00.183Z,101712.36
2019-05-12T12:25:34.026Z,101707.86
2019-05-12T12:28:05.773Z,101703.48
2019-05-12T12:30:36.445Z,101703.48
2019-05-12T12:33:08.294Z,101716.98
2019-05-12T12:35:39.819Z,101730.46
2019-05-12T12:38:13.930Z,101730.35
2019-05-12T12:40:45.057Z,101709.24
2019-05-12T12:43:16.725Z,101717.69
2019-05-12T12:46:18.224Z,101723.42
2019-05-12T12:48:45.304Z,101726.92
2019-05-12T12:51:17.599Z,101733.86
2019-05-12T12:53:49.605Z,101730.10
2019-05-12T12:56:27.734Z,101736.27
2019-05-12T12:58:55.572Z,101736.27
2019-05-12T13:01:30.868Z,101735.88
2019-05-12T13:04:04.682Z,101727.75
2019-05-12T13:06:34.753Z,101727.75
2019-05-12T13:09:18.285Z,101734.17
2019-05-12T13:11:41.737Z,101738.59
2019-05-12T13:14:13.513Z,101738.80
2019-05-12T13:16:49.445Z,101738.22
2019-05-12T13:19:18.994Z,101739.05
2019-05-12T13:21:53.081Z,101742.44
2019-05-12T13:24:24.294Z,101753.14
2019-05-12T13:29:38.610Z,101744.50
2019-05-12T13:32:06.865Z,101744.50
2019-05-12T13:34:38.777Z,101748.58
2019-05-12T13:37:14.753Z,101749.03
2019-05-12T13:39:55.493Z,101753.44
2019-05-12T13:42:16.734Z,101749.34
2019-05-12T13:44:47.645Z,101751.05
2019-05-12T13:47:19.363Z,101748.63
2019-05-12T13:49:51.109Z,101748.63
2019-05-12T13:52:26.293Z,101757.27
2019-05-12T13:55:00.079Z,101758.63
2019-05-12T13:57:29.763Z,101746.62
2019-05-12T14:00:06.790Z,101743.87
2019-05-12T14:02:35.363Z,101754.88
2019-05-12T14:05:11.673Z,101755.00
2019-05-12T14:07:40.692Z,101761.75
2019-05-12T14:10:13.744Z,101750.95
2019-05-12T14:13:41.371Z,101756.46
2019-05-12T14:16:13.054Z,101761.06
2019-05-12T14:18:44.767Z,101770.09
2019-05-12T14:21:15.750Z,101783.02
2019-05-12T14:23:47.549Z,101777.09
2019-05-12T14:26:19.298Z,101768.98
2019-05-12T14:28:50.850Z,101767.30
2019-05-12T14:31:29.320Z,101765.09
2019-05-12T14:33:56.383Z,101777.34
2019-05-12T14:36:28.010Z,101774.08
2019-05-12T14:39:00.215Z,101775.27
2019-05-12T14:41:34.193Z,101762.78
2019-05-12T14:44:05.837Z,101757.37
2019-05-12T14:46:40.126Z,101770.58
2019-05-12T14:49:10.799Z,101767.75
2019-05-12T14:51:44.287Z,101771.70
2019-05-12T14:54:15.793Z,101766.64
2019-05-12T14:56:53.679Z,101761.89
2019-05-12T14:59:21.308Z,101769.56
2019-05-12T15:01:59.054Z,101772.43
2019-05-12T15:04:29.877Z,101770.02
2019-05-12T15:07:04.916Z,101773.26
2019-05-12T15:09:34.059Z,101762.98
2019-05-12T15:12:05.816Z,101771.92
2019-05-12T15:14:38.229Z,101776.27
2019-05-12T15:17:13.732Z,101767.33
2019-05-12T15:19:44.127Z,101768.28
2019-05-12T15:22:15.992Z,101780.09
2019-05-12T15:24:49.323Z,101783.30
2019-05-12T15:27:37.891Z,101783.95
2019-05-12T15:29:56.384Z,101783.72
2019-05-12T15:32:28.375Z,101783.58
2019-05-12T15:35:00.306Z,101794.04
2019-05-12T15:37:35.017Z,101787.13
2019-05-12T15:40:06.019Z,101794.69
2019-05-12T15:42:37.750Z,101801.06
2019-05-12T15:45:12.568Z,101798.64
2019-05-12T15:47:44.308Z,101800.41
2019-05-12T15:50:15.540Z,101797.27
2019-05-12T15:52:47.302Z,101806.87
2019-05-12T15:55:24.204Z,101808.03
2019-05-12T15:57:52.318Z,101806.47
2019-05-12T16:00:24.773Z,101807.15
2019-05-12T16:02:56.682Z,101805.31
2019-05-12T16:05:30.973Z,101790.02
2019-05-12T16:08:03.632Z,101790.02
2019-05-12T16:10:35.300Z,101814.38
2019-05-12T16:13:07.001Z,101814.38
2019-05-12T16:15:38.758Z,101817.89
2019-05-12T16:18:10.647Z,101814.65
2019-05-12T16:20:44.146Z,101801.88
2019-05-12T16:23:28.015Z,101801.88
2019-05-12T16:25:48.671Z,101818.97
2019-05-12T16:28:23.700Z,101817.47
2019-05-12T16:30:53.877Z,101809.71
2019-05-12T16:33:27.303Z,101820.30
2019-05-12T16:36:04.913Z,101816.59
2019-05-12T16:38:33.305Z,101821.91
2019-05-12T16:41:04.832Z,101819.83
2019-05-12T16:43:36.765Z,101821.56
2019-05-12T16:46:08.782Z,101824.97
2019-05-12T16:48:42.103Z,101824.12
2019-05-12T16:51:13.821Z,101828.30
2019-05-12T16:53:45.787Z,101835.28
2019-05-12T16:56:19.895Z,101833.76
2019-05-12T16:58:50.065Z,101835.86
2019-05-12T17:01:25.999Z,101842.84
2019-05-12T17:03:55.546Z,101837.30
2019-05-12T17:06:28.831Z,101825.08
2019-05-12T17:09:03.179Z,101825.08
2019-05-12T17:11:37.275Z,101842.33
2019-05-12T17:14:07.749Z,101840.53
2019-05-12T17:16:42.076Z,101846.32
2019-05-12T17:19:11.760Z,101846.73
2019-05-12T17:21:44.124Z,101848.12
2019-05-12T17:24:15.838Z,101847.91
2019-05-12T17:26:47.574Z,101853.22
2019-05-12T17:29:19.329Z,101858.58
2019-05-12T17:31:50.898Z,101858.58
2019-05-12T17:34:23.495Z,101861.30
2019-05-12T17:37:00.039Z,101867.59
2019-05-12T17:39:34.454Z,101864.05
2019-05-12T17:42:03.057Z,101861.38
2019-05-12T17:44:36.816Z,101868.88
2019-05-12T17:47:15.295Z,101875.17
2019-05-12T17:49:43.585Z,101876.69
2019-05-12T17:52:18.381Z,101878.27
2019-05-12T17:54:49.308Z,101881.14
2019-05-12T17:57:20.890Z,101877.56
2019-05-12T17:59:54.518Z,101883.31
2019-05-12T18:02:26.058Z,101880.08
2019-05-12T18:05:01.253Z,101896.73
2019-05-12T18:07:31.317Z,101887.83
2019-05-12T18:10:04.217Z,101899.45
2019-05-12T18:12:44.066Z,101900.21
2019-05-12T18:15:09.754Z,101902.31
2019-05-12T18:17:45.351Z,101906.05
2019-05-12T18:20:14.609Z,101901.68
2019-05-12T18:22:47.146Z,101906.44
2019-05-12T18:25:21.972Z,101914.23
2019-05-12T18:27:54.224Z,101915.05
2019-05-12T18:30:25.775Z,101915.05
2019-05-12T18:33:04.335Z,101921.77
2019-05-12T18:35:30.302Z,101931.30
2019-05-12T18:38:07.134Z,101928.58
2019-05-12T18:40:34.456Z,101939.34
2019-05-12T18:43:06.259Z,101942.63
2019-05-12T18:45:38.627Z,101951.23
2019-05-12T18:48:17.862Z,101947.81
2019-05-12T18:50:44.242Z,101947.81
2019-05-12T18:53:27.642Z,101963.44
2019-05-12T18:55:49.631Z,101963.72
2019-05-12T18:58:30.150Z,101961.48
2019-05-12T19:00:55.617Z,101961.48
2019-05-12T19:03:26.464Z,101979.81
2019-05-12T19:05:58.319Z,101983.55
2019-05-12T19:08:30.000Z,101986.41
2019-05-12T19:11:17.985Z,101990.79
2019-05-12T19:13:35.314Z,101999.37
2019-05-12T19:16:07.504Z,101998.52
2019-05-12T19:18:39.806Z,102000.17
2019-05-12T19:21:16.709Z,102014.58
2019-05-12T19:23:45.345Z,102017.09
2019-05-12T19:26:17.072Z,102024.20
2019-05-12T19:28:52.982Z,102016.95
2019-05-12T19:31:21.614Z,102026.45
2019-05-12T19:34:14.398Z,102035.55
2019-05-12T19:36:26.753Z,102040.70
2019-05-12T19:38:57.484Z,102049.29
2019-05-12T19:41:30.878Z,102050.59
2019-05-12T19:44:04.045Z,102051.17
2019-05-12T19:46:39.750Z,102052.58
2019-05-12T19:49:09.623Z,102060.18
2019-05-12T19:51:43.670Z,102059.17
2019-05-12T19:54:19.414Z,102059.17
2019-05-12T19:56:48.269Z,102060.13
2019-05-12T19:59:19.870Z,102057.13
2019-05-12T20:01:53.485Z,102059.56
2019-05-12T20:04:33.225Z,102058.83
2019-05-12T20:06:58.399Z,102065.58
2019-05-12T20:09:30.067Z,102069.72
2019-05-12T20:12:08.378Z,102072.89
2019-05-12T20:14:35.272Z,102068.88
2019-05-12T20:17:06.847Z,102070.02
2019-05-12T20:19:38.786Z,102072.94
2019-05-12T20:22:09.460Z,102078.23
2019-05-12T20:24:41.270Z,102082.47
2019-05-12T20:27:17.065Z,102080.80
2019-05-12T20:29:46.500Z,102087.86
2019-05-12T20:32:18.072Z,102087.86
2019-05-12T20:34:52.973Z,102089.95
2019-05-12T20:37:23.300Z,102093.75
2019-05-12T20:40:02.052Z,102093.97
2019-05-12T20:42:33.926Z,102094.19
2019-05-12T20:45:05.293Z,102099.44
2019-05-12T20:47:39.103Z,102103.39
2019-05-12T20:50:11.385Z,102103.39
2019-05-12T20:52:46.343Z,102103.67
2019-05-12T20:55:16.502Z,102099.97
2019-05-12T20:57:52.618Z,102107.50
2019-05-12T21:00:24.167Z,102107.12
2019-05-12T21:02:55.313Z,102111.77
2019-05-12T21:05:27.320Z,102118.95
2019-05-12T21:08:03.339Z,102120.38
2019-05-12T21:10:34.143Z,102120.31
2019-05-12T21:13:06.315Z,102120.08
2019-05-12T21:15:42.659Z,102120.20
2019-05-12T21:18:11.398Z,102123.10
2019-05-12T21:20:46.475Z,102123.10
2019-05-12T21:23:16.822Z,102132.05
2019-05-12T21:25:52.321Z,102127.29
2019-05-12T21:28:23.827Z,102130.41
2019-05-12T21:30:55.813Z,102136.94
2019-05-12T21:33:31.314Z,102136.94
2019-05-12T21:36:03.495Z,102133.36
2019-05-12T21:38:34.795Z,102128.94
2019-05-12T21:41:07.944Z,102136.25
2019-05-12T21:43:38.791Z,102137.89
2019-05-12T21:46:12.613Z,102134.55
2019-05-12T21:48:44.061Z,102139.98
2019-05-12T21:51:19.906Z,102142.98
2019-05-12T21:53:50.671Z,102142.09
2019-05-12T21:56:24.441Z,102151.84
2019-05-12T21:58:58.236Z,102164.56
2019-05-12T22:01:35.173Z,102161.38
2019-05-12T22:04:05.366Z,102165.45
2019-05-12T22:06:37.379Z,102165.62
2019-05-12T22:09:10.333Z,102165.62
2019-05-12T22:11:50.510Z,102173.86
2019-05-12T22:14:15.318Z,102181.94
2019-05-12T22:16:49.328Z,102181.94
2019-05-12T22:19:21.074Z,102179.56
2019-05-12T22:21:53.699Z,102182.67
2019-05-12T22:24:33.823Z,102187.38
2019-05-12T22:27:01.778Z,102188.70
2019-05-12T22:29:34.272Z,102190.41
2019-05-12T22:32:06.313Z,102187.61
2019-05-12T22:34:42.050Z,102193.16
2019-05-12T22:37:13.524Z,102180.00
2019-05-12T22:39:44.993Z,102180.00
2019-05-12T22:42:21.500Z,102193.33
2019-05-12T22:44:55.318Z,102194.06
2019-05-12T22:47:24.147Z,102195.69
2019-05-12T22:49:57.163Z,102193.59
2019-05-12T22:52:29.064Z,102193.70
2019-05-12T22:55:03.025Z,102198.52
2019-05-12T22:57:39.939Z,102202.60
2019-05-12T23:00:13.444Z,102208.31
2019-05-12T23:02:44.515Z,102210.91
2019-05-12T23:05:20.388Z,102213.98
2019-05-12T23:07:49.309Z,102221.80
2019-05-12T23:10:20.829Z,102221.80
2019-05-12T23:12:57.150Z,102218.33
2019-05-12T23:15:26.910Z,102228.62
2019-05-12T23:17:58.775Z,102230.22
2019-05-12T23:20:30.970Z,102230.72
2019-05-12T23:23:04.040Z,102237.43
2019-05-12T23:25:36.762Z,102240.23
2019-05-12T23:28:10.411Z,102241.62
2019-05-12T23:30:43.695Z,102243.10
2019-05-12T23:33:14.304Z,102241.83
2019-05-12T23:35:46.310Z,102246.53
2019-05-12T23:38:20.896Z,102247.51
2019-05-12T23:40:53.609Z,102252.12
2019-05-12T23:43:25.073Z,102252.12
2019-05-12T23:45:57.312Z,102250.90
2019-05-12T23:48:28.853Z,102248.92
2019-05-12T23:51:00.784Z,102253.72
2019-05-12T23:53:33.840Z,102250.87
2019-05-12T23:56:05.844Z,102247.95
2019-05-12T23:58:37.611Z,102245.32
